Time;durP1;ratioP1;P1;durP2;ratioP2;P2;SDS_P1;SDS_P2;PMS_P1;PMS_P2;Temp;Humidity;BMP_temperature;BMP_pressure;BME280_temperature;BME280_humidity;BME280_pressure;Samples;Min_cycle;Max_cycle;Signal;HPM_P1;HPM_P2
2021/05/16 00:00:38;;;;;;;;;;;;;;;27.38;35.38;100058.69;5058643;28;760;-39
2021/05/16 00:03:03;;;;;;;;;;;;;;;27.40;35.58;100055.78;5058390;28;771;-40
2021/05/16 00:05:30;;;;;;;;;;;;;;;27.54;35.10;100055.81;5058257;28;803;-44
2021/05/16 00:07:55;;;;;;;;;;;;;;;27.57;35.11;100060.81;5058410;28;1905;-39
2021/05/16 00:10:21;;;;;;;;;;;;;;;27.65;34.87;100059.78;5058231;28;822;-43
2021/05/16 00:12:46;;;;;;;;;;;;;;;27.67;35.00;100060.44;5057650;28;998;-45
2021/05/16 00:15:12;;;;;;;;;;;;;;;27.71;34.89;100054.44;5058285;28;814;-37
2021/05/16 00:17:38;;;;;;;;;;;;;;;27.68;35.04;100048.56;5057339;28;803;-46
2021/05/16 00:20:09;;;;;;;;;;;;;;;27.67;34.85;100046.91;5057989;28;797;-46
2021/05/16 00:22:34;;;;;;;;;;;;;;;27.72;34.88;100048.03;5040671;28;811;-50
2021/05/16 00:25:00;;;;;;;;;;;;;;;27.69;35.01;100045.72;5057682;28;752;-49
2021/05/16 00:27:25;;;;;;;;;;;;;;;27.68;35.09;100032.38;5057578;28;1909;-44
2021/05/16 00:29:50;;;;;;;;;;;;;;;27.73;34.95;100029.91;5057966;28;811;-47
2021/05/16 00:32:15;;;;;;;;;;;;;;;27.84;34.80;100036.59;5056785;28;1167;-39
2021/05/16 00:34:41;;;;;;;;;;;;;;;27.89;34.65;100035.97;5056953;28;775;-47
2021/05/16 00:37:06;;;;;;;;;;;;;;;27.86;34.54;100038.06;5057843;28;855;-44
2021/05/16 00:39:31;;;;;;;;;;;;;;;27.83;34.60;100029.50;5056939;28;1068;-40
2021/05/16 00:41:58;;;;;;;;;;;;;;;27.81;34.52;100029.72;5056038;28;971;-39
2021/05/16 00:44:23;;;;;;;;;;;;;;;27.80;34.70;100025.38;5057509;28;874;-44
2021/05/16 00:46:49;;;;;;;;;;;;;;;27.77;34.58;100028.47;5057109;28;1971;-45
2021/05/16 00:49:15;;;;;;;;;;;;;;;27.77;34.54;100023.09;5057976;28;743;-39
2021/05/16 00:51:40;;;;;;;;;;;;;;;27.87;34.33;100033.47;5057340;28;850;-40
2021/05/16 00:54:06;;;;;;;;;;;;;;;27.81;34.27;100029.72;5056628;28;824;-40
2021/05/16 00:56:31;;;;;;;;;;;;;;;27.68;34.77;100027.84;5056825;28;919;-44
2021/05/16 00:58:57;;;;;;;;;;;;;;;27.61;34.87;100030.47;5057319;28;748;-42
2021/05/16 01:01:24;;;;;;;;;;;;;;;27.52;35.08;100037.13;5057410;28;779;-44
2021/05/16 01:03:49;;;;;;;;;;;;;;;27.46;35.08;100033.34;5056721;28;767;-39
2021/05/16 01:06:14;;;;;;;;;;;;;;;27.48;35.13;100035.84;5057093;28;1909;-40
2021/05/16 01:08:39;;;;;;;;;;;;;;;27.45;35.24;100030.84;5057077;28;798;-37
2021/05/16 01:11:05;;;;;;;;;;;;;;;27.49;35.03;100035.63;5056506;28;966;-42
2021/05/16 01:13:30;;;;;;;;;;;;;;;27.48;35.22;100033.16;5056775;28;923;-40
2021/05/16 01:15:55;;;;;;;;;;;;;;;27.51;34.86;100033.56;5057054;28;777;-40
2021/05/16 01:18:21;;;;;;;;;;;;;;;27.48;35.22;100028.59;5055987;28;803;-42
2021/05/16 01:20:47;;;;;;;;;;;;;;;27.49;35.36;100032.13;5057153;28;764;-40
2021/05/16 01:23:14;;;;;;;;;;;;;;;27.43;35.35;100030.22;5057088;28;763;-47
2021/05/16 01:25:40;;;;;;;;;;;;;;;27.48;35.42;100023.19;5056013;28;771;-43
2021/05/16 01:28:05;;;;;;;;;;;;;;;27.50;35.39;100031.09;5055961;28;1890;-45
2021/05/16 01:30:31;;;;;;;;;;;;;;;27.50;35.13;100031.09;5056639;28;776;-43
2021/05/16 01:32:56;;;;;;;;;;;;;;;27.56;35.10;100022.16;5050128;28;1115;-38
2021/05/16 01:35:21;;;;;;;;;;;;;;;27.56;35.24;100021.34;5037184;28;727;-47
2021/05/16 01:37:48;;;;;;;;;;;;;;;27.49;35.23;100022.13;5036723;28;752;-39
2021/05/16 01:40:13;;;;;;;;;;;;;;;27.44;35.58;100018.41;5036014;28;1306;-43
2021/05/16 01:42:45;;;;;;;;;;;;;;;27.43;35.13;100009.44;5045998;28;1319;-41
2021/05/16 01:45:12;;;;;;;;;;;;;;;27.57;35.23;100014.91;5056244;28;870;-44
2021/05/16 01:47:38;;;;;;;;;;;;;;;27.46;35.47;100010.94;5055726;28;1905;-42
2021/05/16 01:50:04;;;;;;;;;;;;;;;27.47;35.18;100026.09;5056310;28;794;-40
2021/05/16 01:52:30;;;;;;;;;;;;;;;27.41;35.39;100018.81;5057044;28;784;-41
2021/05/16 01:54:55;;;;;;;;;;;;;;;27.37;35.19;100023.78;5055342;28;846;-43
2021/05/16 01:57:21;;;;;;;;;;;;;;;27.38;35.05;100028.97;5055712;28;1018;-39
2021/05/16 01:59:46;;;;;;;;;;;;;;;27.47;35.22;100031.50;5038768;28;779;-41
2021/05/16 02:02:11;;;;;;;;;;;;;;;27.46;35.04;100022.53;5056449;28;839;-44
2021/05/16 02:04:37;;;;;;;;;;;;;;;27.51;34.98;100025.47;5038759;28;759;-45
2021/05/16 02:07:02;;;;;;;;;;;;;;;27.42;35.07;100020.47;5038292;28;1902;-40
2021/05/16 02:09:27;;;;;;;;;;;;;;;27.43;35.30;100025.66;5055743;28;795;-46
2021/05/16 02:11:53;;;;;;;;;;;;;;;27.47;35.06;100026.94;5055722;28;911;-40
2021/05/16 02:14:22;;;;;;;;;;;;;;;27.45;35.32;100031.69;5056142;28;768;-44
2021/05/16 02:16:47;;;;;;;;;;;;;;;27.48;35.03;100025.88;5056158;28;795;-39
2021/05/16 02:19:13;;;;;;;;;;;;;;;27.45;34.93;100025.44;5056275;28;751;-38
2021/05/16 02:21:39;;;;;;;;;;;;;;;27.46;35.14;100032.53;5056284;28;815;-39
2021/05/16 02:24:05;;;;;;;;;;;;;;;27.51;35.04;100024.63;5055861;28;772;-38
2021/05/16 02:26:30;;;;;;;;;;;;;;;27.51;35.14;100028.19;5055457;28;1968;-39
2021/05/16 02:28:55;;;;;;;;;;;;;;;27.48;35.05;100022.34;5056122;28;669;-39
2021/05/16 02:31:21;;;;;;;;;;;;;;;27.48;35.04;100030.44;5056036;28;878;-40
2021/05/16 02:33:46;;;;;;;;;;;;;;;27.43;35.47;100022.97;5054562;28;1096;-37
2021/05/16 02:36:11;;;;;;;;;;;;;;;27.17;35.61;100029.94;5056553;28;735;-37
2021/05/16 02:38:36;;;;;;;;;;;;;;;27.09;36.27;100030.91;5055299;28;1077;-37
2021/05/16 02:41:02;;;;;;;;;;;;;;;27.04;36.24;100029.88;5055843;28;923;-37
2021/05/16 02:43:27;;;;;;;;;;;;;;;27.06;35.93;100028.63;5054853;28;941;-44
2021/05/16 02:45:52;;;;;;;;;;;;;;;26.94;36.29;100017.56;5055796;28;1927;-44
2021/05/16 02:48:17;;;;;;;;;;;;;;;26.88;36.52;100023.72;5054400;28;1080;-41
2021/05/16 02:50:43;;;;;;;;;;;;;;;26.89;36.22;100020.81;5056017;28;791;-39
2021/05/16 02:53:08;;;;;;;;;;;;;;;26.93;36.25;100015.03;5056175;28;764;-38
2021/05/16 02:55:33;;;;;;;;;;;;;;;26.97;36.42;100014.44;5055999;28;847;-39
2021/05/16 02:57:58;;;;;;;;;;;;;;;26.96;36.33;100026.25;5055364;28;944;-44
2021/05/16 03:00:26;;;;;;;;;;;;;;;26.92;36.63;100030.41;5055542;28;833;-37
2021/05/16 03:02:51;;;;;;;;;;;;;;;26.49;36.08;100034.06;5038381;28;775;-36
2021/05/16 03:05:16;;;;;;;;;;;;;;;26.29;36.26;100035.53;5055975;28;747;-39
2021/05/16 03:07:42;;;;;;;;;;;;;;;26.15;36.29;100034.63;5058776;28;1906;-46
2021/05/16 03:10:07;;;;;;;;;;;;;;;26.24;36.14;100039.88;5059528;28;763;-38
2021/05/16 03:12:33;;;;;;;;;;;;;;;26.39;36.67;100047.91;5058723;28;962;-39
2021/05/16 03:14:58;;;;;;;;;;;;;;;26.50;36.67;100044.66;5058835;28;786;-40
2021/05/16 03:17:23;;;;;;;;;;;;;;;26.26;35.66;100044.03;5059589;28;815;-36
2021/05/16 03:19:49;;;;;;;;;;;;;;;25.87;35.90;100048.03;5059254;28;748;-38
2021/05/16 03:22:14;;;;;;;;;;;;;;;25.69;35.96;100046.59;5058576;28;898;-35
2021/05/16 03:24:40;;;;;;;;;;;;;;;25.65;35.96;100040.75;5058728;28;1158;-39
2021/05/16 03:27:05;;;;;;;;;;;;;;;25.62;35.92;100045.66;5055489;28;1977;-33
2021/05/16 03:29:31;;;;;;;;;;;;;;;25.60;36.37;100048.53;5058501;28;1371;-33
2021/05/16 03:31:57;;;;;;;;;;;;;;;25.55;36.65;100049.13;5058917;28;768;-34
2021/05/16 03:34:23;;;;;;;;;;;;;;;25.56;37.28;100048.09;5059076;28;1116;-38
2021/05/16 03:36:48;;;;;;;;;;;;;;;25.55;38.60;100046.44;5040801;28;802;-37
2021/05/16 03:39:13;;;;;;;;;;;;;;;25.52;37.66;100048.66;5058403;28;1183;-38
2021/05/16 03:41:39;;;;;;;;;;;;;;;25.45;36.94;100045.88;5058086;28;1498;-37
2021/05/16 03:44:04;;;;;;;;;;;;;;;25.47;36.71;100048.38;5058323;28;696;-37
2021/05/16 03:46:29;;;;;;;;;;;;;;;25.30;37.00;100043.22;5058605;28;1918;-38
2021/05/16 03:48:55;;;;;;;;;;;;;;;25.20;37.54;100046.19;5058901;28;862;-34
2021/05/16 03:51:20;;;;;;;;;;;;;;;25.22;38.02;100044.16;5058570;28;912;-37
2021/05/16 03:53:45;;;;;;;;;;;;;;;25.14;38.71;100046.94;5058672;28;799;-37
2021/05/16 03:56:10;;;;;;;;;;;;;;;25.02;39.32;100046.59;5057978;28;943;-41
2021/05/16 03:58:36;;;;;;;;;;;;;;;25.12;39.54;100051.69;5058371;28;858;-41
2021/05/16 04:01:01;;;;;;;;;;;;;;;24.96;39.89;100056.22;5058253;28;790;-40
2021/05/16 04:03:26;;;;;;;;;;;;;;;25.29;38.98;100063.91;5058546;28;799;-52
2021/05/16 04:05:52;;;;;;;;;;;;;;;25.41;38.48;100068.81;5058340;28;1902;-40
2021/05/16 04:08:17;;;;;;;;;;;;;;;25.49;38.37;100067.88;5058061;28;799;-48
2021/05/16 04:10:42;;;;;;;;;;;;;;;25.49;38.57;100067.88;5058242;28;828;-46
2021/05/16 04:13:08;;;;;;;;;;;;;;;25.47;38.58;100070.78;5058149;28;1026;-47
2021/05/16 04:15:33;;;;;;;;;;;;;;;25.50;38.71;100078.47;5058187;28;832;-46
2021/05/16 04:17:58;;;;;;;;;;;;;;;25.53;39.18;100085.31;5057255;28;760;-44
2021/05/16 04:20:24;;;;;;;;;;;;;;;25.58;39.32;100093.66;5058338;28;819;-47
2021/05/16 04:22:49;;;;;;;;;;;;;;;25.56;39.51;100099.25;5057762;28;772;-47
2021/05/16 04:25:14;;;;;;;;;;;;;;;25.50;39.88;100091.09;5058016;28;736;-48
2021/05/16 04:27:39;;;;;;;;;;;;;;;25.48;39.78;100093.13;5057372;28;1969;-43
2021/05/16 04:30:05;;;;;;;;;;;;;;;25.58;39.77;100079.38;5039870;28;760;-49
2021/05/16 04:32:30;;;;;;;;;;;;;;;25.72;39.65;100083.09;5055150;28;1191;-46
2021/05/16 04:34:56;;;;;;;;;;;;;;;25.51;38.88;100088.22;5038194;28;756;-46
2021/05/16 04:37:21;;;;;;;;;;;;;;;25.49;40.06;100098.31;5037493;28;807;-44
2021/05/16 04:39:46;;;;;;;;;;;;;;;25.64;40.02;100094.81;5037913;28;1263;-43
2021/05/16 04:42:12;;;;;;;;;;;;;;;25.79;39.42;100086.72;5044291;28;994;-43
2021/05/16 04:44:37;;;;;;;;;;;;;;;25.90;39.36;100090.75;5057666;28;772;-43
2021/05/16 04:47:02;;;;;;;;;;;;;;;25.95;39.34;100090.16;5057060;28;1972;-45
2021/05/16 04:49:27;;;;;;;;;;;;;;;25.90;39.41;100075.44;5056935;28;799;-43
2021/05/16 04:51:53;;;;;;;;;;;;;;;25.90;39.39;100066.50;5056920;28;819;-44
2021/05/16 04:54:18;;;;;;;;;;;;;;;25.99;39.09;100073.41;5057415;28;819;-43
2021/05/16 04:56:43;;;;;;;;;;;;;;;25.87;39.32;100073.13;5057014;28;888;-43
2021/05/16 04:59:09;;;;;;;;;;;;;;;25.94;39.07;100075.03;5039086;28;888;-43
2021/05/16 05:01:35;;;;;;;;;;;;;;;25.94;39.11;100075.88;5057644;28;775;-45
2021/05/16 05:04:00;;;;;;;;;;;;;;;25.92;39.16;100078.75;5039388;28;905;-44
2021/05/16 05:06:27;;;;;;;;;;;;;;;25.94;39.16;100075.88;5056237;28;1910;-47
2021/05/16 05:08:53;;;;;;;;;;;;;;;25.98;38.77;100081.69;5057507;28;871;-43
2021/05/16 05:11:18;;;;;;;;;;;;;;;25.97;38.85;100078.19;5038717;28;995;-45
2021/05/16 05:13:43;;;;;;;;;;;;;;;25.98;38.79;100081.69;5056577;28;772;-44
2021/05/16 05:16:09;;;;;;;;;;;;;;;25.98;38.46;100079.84;5056933;28;890;-41
2021/05/16 05:18:34;;;;;;;;;;;;;;;25.95;38.56;100072.16;5057061;28;846;-44
2021/05/16 05:20:59;;;;;;;;;;;;;;;26.11;38.60;100087.22;5056689;28;818;-44
2021/05/16 05:23:26;;;;;;;;;;;;;;;26.08;38.46;100093.00;5056658;28;890;-45
2021/05/16 05:25:52;;;;;;;;;;;;;;;25.67;39.59;100094.44;5056790;28;1969;-48
2021/05/16 05:28:17;;;;;;;;;;;;;;;25.83;39.69;100095.22;5056321;28;865;-44
2021/05/16 05:30:43;;;;;;;;;;;;;;;25.80;39.72;100099.13;5056037;28;830;-43
2021/05/16 05:33:08;;;;;;;;;;;;;;;25.86;39.83;100094.88;5055132;28;1163;-50
2021/05/16 05:35:33;;;;;;;;;;;;;;;25.82;39.90;100096.25;5056744;28;739;-47
2021/05/16 05:37:58;;;;;;;;;;;;;;;25.86;39.99;100094.88;5038546;28;1006;-50
2021/05/16 05:40:24;;;;;;;;;;;;;;;25.87;39.79;100081.19;5033534;28;943;-49
2021/05/16 05:42:49;;;;;;;;;;;;;;;25.90;39.94;100090.75;5050836;28;968;-40
2021/05/16 05:45:14;;;;;;;;;;;;;;;25.92;39.81;100091.41;5056739;28;918;-47
2021/05/16 05:47:41;;;;;;;;;;;;;;;25.89;40.04;100097.19;5056363;28;1910;-43
2021/05/16 05:50:06;;;;;;;;;;;;;;;25.88;40.15;100090.94;5056255;28;815;-41
2021/05/16 05:52:32;;;;;;;;;;;;;;;25.92;40.29;100092.22;5056717;28;851;-41
2021/05/16 05:54:57;;;;;;;;;;;;;;;26.03;40.06;100092.75;5038444;28;1391;-45
2021/05/16 05:57:22;;;;;;;;;;;;;;;25.79;40.59;100087.53;5056190;28;880;-45
2021/05/16 05:59:48;;;;;;;;;;;;;;;25.78;40.92;100093.94;5056218;28;756;-45
2021/05/16 06:02:13;;;;;;;;;;;;;;;25.86;40.70;100092.97;5056374;28;798;-45
2021/05/16 06:04:38;;;;;;;;;;;;;;;25.87;40.85;100094.66;5056795;28;815;-43
2021/05/16 06:07:04;;;;;;;;;;;;;;;25.88;40.88;100090.09;5056019;28;1909;-43
2021/05/16 06:09:30;;;;;;;;;;;;;;;25.86;40.77;100098.38;5055356;28;929;-46
2021/05/16 06:11:55;;;;;;;;;;;;;;;25.81;41.18;100095.41;5056061;28;983;-46
2021/05/16 06:14:20;;;;;;;;;;;;;;;25.77;41.29;100096.81;5055701;28;840;-46
2021/05/16 06:16:46;;;;;;;;;;;;;;;25.82;41.29;100098.94;5055950;28;906;-47
2021/05/16 06:19:11;;;;;;;;;;;;;;;26.00;40.97;100096.66;5056470;28;799;-43
2021/05/16 06:21:37;;;;;;;;;;;;;;;25.82;41.38;100101.66;5038254;28;814;-42
2021/05/16 06:26:28;;;;;;;;;;;;;;;26.33;40.44;100102.59;5054860;28;1910;-48
2021/05/16 06:28:53;;;;;;;;;;;;;;;26.43;40.11;100102.25;5055541;28;819;-55
2021/05/16 06:31:19;;;;;;;;;;;;;;;26.52;40.01;100120.84;5021701;28;756;-46
2021/05/16 06:33:45;;;;;;;;;;;;;;;26.58;40.21;100121.91;5043296;28;1171;-50
2021/05/16 06:36:10;;;;;;;;;;;;;;;26.59;40.15;100123.56;5035648;28;768;-45
2021/05/16 06:38:35;;;;;;;;;;;;;;;26.61;40.01;100129.59;5036314;28;1335;-49
2021/05/16 06:41:00;;;;;;;;;;;;;;;26.62;39.91;100130.44;5031853;28;892;-49
2021/05/16 06:43:26;;;;;;;;;;;;;;;26.60;39.97;100132.50;5056387;28;964;-48
2021/05/16 06:45:52;;;;;;;;;;;;;;;26.60;39.96;100135.19;5042211;28;811;-41
2021/05/16 06:48:17;;;;;;;;;;;;;;;26.03;41.01;100117.84;5060330;28;1913;-41
2021/05/16 06:50:42;;;;;;;;;;;;;;;25.85;41.27;100117.44;5059412;28;794;-42
2021/05/16 06:53:07;;;;;;;;;;;;;;;25.83;41.24;100128.38;5060373;28;819;-41
2021/05/16 06:55:33;;;;;;;;;;;;;;;25.68;41.72;100131.97;5059609;28;502;-42
2021/05/16 06:57:58;;;;;;;;;;;;;;;26.02;40.91;100128.81;5057535;28;1398;-40
2021/05/16 07:00:23;;;;;;;;;;;;;;;26.04;40.90;100135.66;5058950;28;795;-40
2021/05/16 07:02:49;;;;;;;;;;;;;;;26.03;40.91;100135.88;5041564;28;820;-43
2021/05/16 07:05:14;;;;;;;;;;;;;;;26.17;40.36;100136.84;5059093;28;850;-43
2021/05/16 07:07:40;;;;;;;;;;;;;;;26.24;40.27;100136.91;5059684;28;1906;-44
2021/05/16 07:10:06;;;;;;;;;;;;;;;26.23;40.46;100141.47;5059526;28;819;-43
2021/05/16 07:12:31;;;;;;;;;;;;;;;26.04;40.99;100141.06;5040439;28;1318;-41
2021/05/16 07:14:56;;;;;;;;;;;;;;;26.14;40.72;100145.31;5058953;28;801;-40
2021/05/16 07:17:21;;;;;;;;;;;;;;;26.10;40.27;100144.03;5059234;28;776;-39
2021/05/16 07:19:47;;;;;;;;;;;;;;;26.25;39.86;100146.66;5059209;28;807;-41
2021/05/16 07:22:13;;;;;;;;;;;;;;;26.13;39.80;100144.47;5059504;28;863;-41
2021/05/16 07:24:38;;;;;;;;;;;;;;;26.19;39.38;100152.84;5059014;28;795;-40
2021/05/16 07:27:03;;;;;;;;;;;;;;;26.21;39.41;100148.09;5058175;28;1973;-39
2021/05/16 07:29:29;;;;;;;;;;;;;;;26.23;39.59;100162.19;5059180;28;887;-41
2021/05/16 07:31:54;;;;;;;;;;;;;;;26.10;40.15;100160.19;5059374;28;772;-43
2021/05/16 07:34:19;;;;;;;;;;;;;;;26.01;39.83;100156.78;5041460;28;1207;-39
2021/05/16 07:36:45;;;;;;;;;;;;;;;26.12;39.64;100153.59;5039120;28;784;-40
2021/05/16 07:39:10;;;;;;;;;;;;;;;26.07;39.91;100156.03;5037699;28;1049;-47
2021/05/16 07:41:35;;;;;;;;;;;;;;;26.02;39.93;100156.59;5039339;28;970;-42
2021/05/16 07:44:01;;;;;;;;;;;;;;;26.13;39.99;100160.66;5059012;28;763;-40
2021/05/16 07:46:26;;;;;;;;;;;;;;;26.04;39.86;100153.72;5058026;28;1967;-43
2021/05/16 07:48:51;;;;;;;;;;;;;;;26.00;39.98;100147.03;5058314;28;826;-41
2021/05/16 07:51:16;;;;;;;;;;;;;;;26.14;38.90;100142.63;5059026;28;815;-41
2021/05/16 07:53:42;;;;;;;;;;;;;;;26.47;38.75;100147.53;5057314;28;978;-46
2021/05/16 07:56:09;;;;;;;;;;;;;;;26.26;39.27;100146.47;5058042;28;931;-45
2021/05/16 07:58:35;;;;;;;;;;;;;;;26.20;39.15;100149.94;5038587;28;926;-41
2021/05/16 08:01:00;;;;;;;;;;;;;;;26.11;38.85;100141.13;5038827;28;764;-41
2021/05/16 08:03:25;;;;;;;;;;;;;;;26.11;38.97;100141.13;5038387;28;867;-44
2021/05/16 08:05:52;;;;;;;;;;;;;;;26.12;38.96;100145.53;5038110;28;496;-43
2021/05/16 08:08:17;;;;;;;;;;;;;;;26.34;38.31;100139.31;5038574;28;1975;-43
2021/05/16 08:10:43;;;;;;;;;;;;;;;26.31;38.61;100137.00;5038472;28;760;-42
2021/05/16 08:13:08;;;;;;;;;;;;;;;26.49;38.29;100133.88;5054188;28;893;-46
2021/05/16 08:15:33;;;;;;;;;;;;;;;26.48;38.14;100135.72;5058581;28;787;-50
2021/05/16 08:17:59;;;;;;;;;;;;;;;26.23;39.20;100132.53;5057323;28;816;-44
2021/05/16 08:20:24;;;;;;;;;;;;;;;26.35;38.94;100130.19;5057687;28;800;-43
2021/05/16 08:22:49;;;;;;;;;;;;;;;26.23;39.17;100130.69;5040522;28;775;-45
2021/05/16 08:25:15;;;;;;;;;;;;;;;26.19;38.82;100124.03;5058048;28;922;-43
2021/05/16 08:27:40;;;;;;;;;;;;;;;26.22;38.79;100118.25;5057132;28;1894;-44
2021/05/16 08:30:06;;;;;;;;;;;;;;;26.32;38.80;100119.78;5058198;28;752;-44
2021/05/16 08:32:31;;;;;;;;;;;;;;;26.31;38.84;100124.31;5055099;28;1111;-45
2021/05/16 08:34:56;;;;;;;;;;;;;;;26.32;38.65;100120.63;5037561;28;866;-45
2021/05/16 08:37:22;;;;;;;;;;;;;;;26.30;38.45;100117.28;5038118;28;767;-44
2021/05/16 08:39:47;;;;;;;;;;;;;;;26.36;38.31;100113.81;5036292;28;1001;-44
2021/05/16 08:42:12;;;;;;;;;;;;;;;26.58;38.10;100118.34;5043864;28;1002;-47
2021/05/16 08:44:38;;;;;;;;;;;;;;;26.32;38.42;100117.91;5057828;28;760;-47
2021/05/16 08:47:03;;;;;;;;;;;;;;;26.34;38.56;100117.75;5057349;28;1968;-51
2021/05/16 08:49:28;;;;;;;;;;;;;;;26.83;37.58;100123.31;5056813;28;866;-53
2021/05/16 08:51:54;;;;;;;;;;;;;;;27.23;36.63;100122.78;5038027;28;840;-43
2021/05/16 08:54:19;;;;;;;;;;;;;;;27.37;36.05;100113.75;5039259;28;772;-40
2021/05/16 08:56:48;;;;;;;;;;;;;;;27.46;36.19;100119.78;5038995;28;905;-41
2021/05/16 08:59:13;;;;;;;;;;;;;;;27.47;35.92;100116.06;5057798;28;824;-41
2021/05/16 09:01:45;;;;;;;;;;;;;;;27.20;36.63;100117.78;5057412;28;787;-41
2021/05/16 09:04:17;;;;;;;;;;;;;;;27.06;36.86;100108.78;5057026;28;790;-41
2021/05/16 09:06:42;;;;;;;;;;;;;;;27.10;36.68;100100.09;5056676;28;1906;-41
2021/05/16 09:09:27;;;;;;;;;;;;;;;27.12;36.60;100100.72;5057364;28;786;-43
2021/05/16 09:11:55;;;;;;;;;;;;;;;27.16;36.44;100094.94;5056225;28;896;-41
2021/05/16 09:14:39;;;;;;;;;;;;;;;27.09;36.53;100098.41;5057056;28;755;-41
2021/05/16 09:17:20;;;;;;;;;;;;;;;27.18;36.80;100098.25;5056499;28;901;-41
2021/05/16 09:19:47;;;;;;;;;;;;;;;27.22;36.22;100097.66;5039008;28;1084;-44
2021/05/16 09:22:28;;;;;;;;;;;;;;;27.24;36.33;100100.97;5056173;28;828;-43
2021/05/16 09:25:03;;;;;;;;;;;;;;;27.29;36.36;100105.81;5056666;28;822;-48
2021/05/16 09:27:30;;;;;;;;;;;;;;;27.31;35.85;100095.63;5056466;28;1914;-44
2021/05/16 09:29:57;;;;;;;;;;;;;;;27.42;35.79;100094.22;5056959;28;764;-46
2021/05/16 09:32:25;;;;;;;;;;;;;;;27.14;35.24;100092.44;5054819;28;1060;-53
2021/05/16 09:34:50;;;;;;;;;;;;;;;27.18;35.70;100093.69;5036880;28;795;-42
2021/05/16 09:37:16;;;;;;;;;;;;;;;27.31;35.91;100095.63;5034905;28;728;-43
2021/05/16 09:39:41;;;;;;;;;;;;;;;27.37;35.69;100089.44;5036139;28;1093;-44
2021/05/16 09:42:07;;;;;;;;;;;;;;;27.41;35.51;100083.63;5037935;28;1523;-44
2021/05/16 09:44:34;;;;;;;;;;;;;;;27.43;35.47;100082.38;5057146;28;747;-43
2021/05/16 09:47:08;;;;;;;;;;;;;;;27.42;35.61;100079.88;5055706;28;1958;-50
2021/05/16 09:49:33;;;;;;;;;;;;;;;27.38;35.55;100083.00;5056661;28;792;-47
2021/05/16 09:52:06;;;;;;;;;;;;;;;27.40;35.18;100077.38;5055714;28;800;-44
2021/05/16 09:54:31;;;;;;;;;;;;;;;27.36;35.70;100082.34;5037196;28;860;-48
2021/05/16 09:56:56;;;;;;;;;;;;;;;27.35;35.69;100078.00;5038347;28;1102;-42
2021/05/16 09:59:21;;;;;;;;;;;;;;;27.33;35.66;100071.09;5038369;28;827;-44
2021/05/16 10:01:47;;;;;;;;;;;;;;;27.34;35.96;100079.00;5055624;28;787;-39
2021/05/16 10:04:12;;;;;;;;;;;;;;;27.36;35.80;100071.53;5038721;28;803;-44
2021/05/16 10:06:37;;;;;;;;;;;;;;;27.17;36.02;100064.19;5056319;28;1902;-46
2021/05/16 10:09:03;;;;;;;;;;;;;;;27.22;36.09;100057.16;5056575;28;776;-45
2021/05/16 10:11:30;;;;;;;;;;;;;;;27.49;35.77;100062.66;5055521;28;896;-45
2021/05/16 10:13:55;;;;;;;;;;;;;;;27.71;35.08;100057.16;5056448;28;826;-48
2021/05/16 10:16:21;;;;;;;;;;;;;;;27.77;35.11;100052.81;5059794;28;807;-44
2021/05/16 10:18:46;;;;;;;;;;;;;;;27.53;35.38;100054.97;5062696;28;803;-45
2021/05/16 10:21:11;;;;;;;;;;;;;;;27.57;35.59;100058.97;5044852;28;803;-52
2021/05/16 10:23:37;;;;;;;;;;;;;;;27.73;35.05;100046.97;5062822;28;799;-48
2021/05/16 10:26:15;;;;;;;;;;;;;;;27.69;34.95;100050.28;5061640;28;1898;-45
2021/05/16 10:28:57;;;;;;;;;;;;;;;27.67;35.28;100042.34;5062500;28;755;-50
2021/05/16 10:31:40;;;;;;;;;;;;;;;27.82;34.67;100041.38;5062656;28;842;-48
2021/05/16 10:34:24;;;;;;;;;;;;;;;27.86;34.47;100035.34;5060678;28;1179;-46
2021/05/16 10:36:49;;;;;;;;;;;;;;;27.87;34.95;100039.72;5062263;28;945;-45
2021/05/16 10:39:33;;;;;;;;;;;;;;;27.85;35.12;100035.56;5062463;28;1116;-47
2021/05/16 10:42:17;;;;;;;;;;;;;;;27.97;34.44;100031.22;5060280;28;947;-46
2021/05/16 10:44:54;;;;;;;;;;;;;;;27.96;34.55;100037.66;5063146;28;763;-45
2021/05/16 10:47:38;;;;;;;;;;;;;;;28.18;34.30;100036.63;5062351;28;1973;-42
2021/05/16 10:50:04;;;;;;;;;;;;;;;28.23;34.06;100031.41;5062365;28;818;-41
2021/05/16 10:52:30;;;;;;;;;;;;;;;28.24;33.98;100038.50;5043276;28;1162;-44
2021/05/16 10:54:55;;;;;;;;;;;;;;;28.20;34.34;100027.28;5043623;28;1277;-41
2021/05/16 10:57:24;;;;;;;;;;;;;;;28.23;34.45;100032.25;5060668;28;974;-42
2021/05/16 10:59:49;;;;;;;;;;;;;;;28.17;34.49;100024.16;5062771;28;736;-40
2021/05/16 11:02:33;;;;;;;;;;;;;;;28.10;34.71;100019.56;5062501;28;779;-40
2021/05/16 11:04:59;;;;;;;;;;;;;;;28.13;34.40;100018.31;5052101;28;838;-40
2021/05/16 11:07:31;;;;;;;;;;;;;;;28.08;34.63;100018.94;5043092;28;2034;-42
2021/05/16 11:10:15;;;;;;;;;;;;;;;28.03;35.07;100016.03;5042792;28;1001;-40
2021/05/16 11:12:40;;;;;;;;;;;;;;;28.04;35.30;100016.88;5045166;28;996;-41
2021/05/16 11:15:06;;;;;;;;;;;;;;;28.05;35.09;100013.97;5052169;28;985;-39
2021/05/16 11:17:31;;;;;;;;;;;;;;;28.16;34.67;100019.78;5053895;28;1036;-39
2021/05/16 11:19:56;;;;;;;;;;;;;;;28.13;34.55;100012.09;5061187;28;1167;-40
2021/05/16 11:22:22;;;;;;;;;;;;;;;28.14;34.92;100011.88;5064458;28;850;-41
2021/05/16 11:24:50;;;;;;;;;;;;;;;28.14;34.90;100021.88;5080457;28;779;-41
2021/05/16 11:27:26;;;;;;;;;;;;;;;28.11;34.96;100005.00;5069911;28;1901;-41
2021/05/16 11:29:52;;;;;;;;;;;;;;;28.07;34.76;100002.94;5057713;28;864;-40
2021/05/16 11:32:22;;;;;;;;;;;;;;;27.95;34.70;99998.16;5058103;28;1127;-40
2021/05/16 11:34:59;;;;;;;;;;;;;;;27.98;35.32;99996.88;5039010;28;795;-40
2021/05/16 11:37:25;;;;;;;;;;;;;;;27.97;35.39;99997.94;5038848;28;743;-40
2021/05/16 11:39:50;;;;;;;;;;;;;;;28.03;35.30;99994.41;5037589;28;1088;-41
2021/05/16 11:42:31;;;;;;;;;;;;;;;28.03;35.69;99991.69;5048945;28;991;-41
2021/05/16 11:44:57;;;;;;;;;;;;;;;27.98;35.51;100003.13;5058061;28;855;-40
2021/05/16 11:47:34;;;;;;;;;;;;;;;28.05;35.15;99995.03;5057828;28;1906;-40
2021/05/16 11:49:59;;;;;;;;;;;;;;;28.00;35.34;99994.81;5058239;28;803;-41
2021/05/16 11:52:24;;;;;;;;;;;;;;;28.08;35.42;99982.94;5058394;28;799;-40
2021/05/16 11:54:49;;;;;;;;;;;;;;;28.15;35.33;99991.06;5057663;28;751;-40
2021/05/16 11:57:15;;;;;;;;;;;;;;;28.09;35.24;99987.34;5039990;28;1054;-41
2021/05/16 11:59:40;;;;;;;;;;;;;;;28.08;35.28;99982.94;5039857;28;878;-41
2021/05/16 12:02:05;;;;;;;;;;;;;;;28.08;35.12;99982.94;5057080;28;809;-41
2021/05/16 12:04:38;;;;;;;;;;;;;;;28.08;34.84;99978.38;5058559;28;752;-41
2021/05/16 12:07:04;;;;;;;;;;;;;;;28.08;35.00;99970.28;5057124;28;1969;-41
2021/05/16 12:09:29;;;;;;;;;;;;;;;27.97;35.02;99971.75;5040242;28;829;-41
2021/05/16 12:11:55;;;;;;;;;;;;;;;28.09;34.80;99961.13;5040098;28;1498;-39
2021/05/16 12:14:27;;;;;;;;;;;;;;;28.09;34.99;99954.91;5058228;28;832;-40
2021/05/16 12:16:52;;;;;;;;;;;;;;;28.01;35.39;99952.41;5057798;28;807;-42
2021/05/16 12:19:18;;;;;;;;;;;;;;;28.19;35.15;99949.91;5056330;28;806;-42
2021/05/16 12:21:44;;;;;;;;;;;;;;;28.22;34.85;99951.34;5057787;28;839;-44
2021/05/16 12:24:09;;;;;;;;;;;;;;;28.22;34.42;99944.06;5057494;28;756;-42
2021/05/16 12:26:35;;;;;;;;;;;;;;;28.19;34.41;99938.25;5037728;28;1906;-41
2021/05/16 12:29:01;;;;;;;;;;;;;;;28.17;34.34;99933.06;5040191;28;795;-40
2021/05/16 12:31:28;;;;;;;;;;;;;;;28.20;34.41;99931.78;5057212;28;810;-40
2021/05/16 12:33:53;;;;;;;;;;;;;;;28.18;34.13;99931.16;5037303;28;1245;-40
2021/05/16 12:36:19;;;;;;;;;;;;;;;28.14;34.22;99930.78;5037511;28;1385;-43
2021/05/16 12:38:45;;;;;;;;;;;;;;;28.04;34.46;99927.66;5036765;28;1025;-42
2021/05/16 12:41:11;;;;;;;;;;;;;;;27.98;34.88;99922.03;5043900;28;1064;-42
2021/05/16 12:43:37;;;;;;;;;;;;;;;28.19;34.17;99920.16;5056511;28;767;-46
2021/05/16 12:46:02;;;;;;;;;;;;;;;28.27;33.80;99918.25;5039492;28;807;-45
2021/05/16 12:48:27;;;;;;;;;;;;;;;28.31;33.64;99916.81;5057390;28;1930;-42
2021/05/16 12:50:58;;;;;;;;;;;;;;;28.32;33.65;99919.28;5057085;28;851;-41
2021/05/16 12:53:24;;;;;;;;;;;;;;;28.34;33.97;99908.28;5039523;28;819;-45